Terminal Aerodrome Forecast
Issued by NWS

Home | Current Version | Previous Version | Text Only | Print | Product List | Glossary On
Versions: 1 2 3 4 5 6 7 8 9 10 11 12 13 14 15 16 17
000
FTUS45 KBYZ 290520
TAFLVM
TAF
KLVM 290520Z 2906/3006 VRB05KT P6SM SCT250
     FM292100 27010KT P6SM VCSH FEW050 BKN200
     FM300200 24007KT P6SM FEW050 BKN120=

USA.gov is the U.S. government's official web portal to all federal, state and local government web resources and services.